Time;durP1;ratioP1;P1;durP2;ratioP2;P2;SDS_P1;SDS_P2;PMS_P1;PMS_P2;Temp;Humidity;BMP_temperature;BMP_pressure;BME280_temperature;BME280_humidity;BME280_pressure;Samples;Min_cycle;Max_cycle;Signal;HPM_P1;HPM_P2
2022/08/16 00:00:44;;;;;;;30.13;16.98;;;;;;;20.44;100.00;94289.28;6117863;23;20160;-81
2022/08/16 00:03:11;;;;;;;28.23;16.65;;;;;;;20.41;100.00;94289.06;6117266;23;20157;-81
2022/08/16 00:05:39;;;;;;;24.55;16.95;;;;;;;20.36;100.00;94285.44;6116177;23;20687;-82
2022/08/16 00:08:05;;;;;;;23.13;16.10;;;;;;;20.36;100.00;94289.94;6116543;23;20536;-81
2022/08/16 00:10:34;;;;;;;27.50;16.88;;;;;;;20.41;100.00;94289.06;6117603;23;20222;-81
2022/08/16 00:13:05;;;;;;;25.38;16.17;;;;;;;20.38;100.00;94290.44;6116236;23;20551;-81
2022/08/16 00:15:38;;;;;;;29.15;16.30;;;;;;;20.43;100.00;94286.94;6115882;23;20816;-82
2022/08/16 00:18:06;;;;;;;24.55;16.98;;;;;;;20.51;100.00;94279.16;6115630;23;20160;-81
2022/08/16 00:20:34;;;;;;;22.83;16.08;;;;;;;20.56;100.00;94281.72;6117277;23;20168;-82
2022/08/16 00:23:00;;;;;;;29.88;17.42;;;;;;;20.55;100.00;94284.66;6116835;23;20168;-81
2022/08/16 00:25:28;;;;;;;30.05;17.67;;;;;;;20.47;100.00;94290.56;6118094;23;20411;-80
2022/08/16 00:27:55;;;;;;;32.30;17.75;;;;;;;20.36;100.00;94284.66;6117985;23;20161;-81
2022/08/16 00:30:24;;;;;;;32.03;17.40;;;;;;;20.29;100.00;94286.88;6117963;23;20176;-81
2022/08/16 00:32:55;;;;;;;32.95;18.52;;;;;;;20.24;100.00;94281.66;6117654;23;20197;-82
2022/08/16 00:35:25;;;;;;;27.60;16.92;;;;;;;20.16;100.00;94287.56;6117620;23;20175;-82
2022/08/16 00:37:54;;;;;;;29.55;16.48;;;;;;;20.18;100.00;94296.78;6117516;23;20167;-82
2022/08/16 00:40:29;;;;;;;30.27;18.42;;;;;;;20.06;100.00;94288.50;6117891;23;20945;-82
2022/08/16 00:42:58;;;;;;;25.00;16.67;;;;;;;19.92;100.00;94277.09;6117906;23;20194;-81
2022/08/16 00:45:33;;;;;;;26.30;16.50;;;;;;;19.97;100.00;94292.84;6118382;23;20511;-82
2022/08/16 00:48:04;;;;;;;29.08;17.23;;;;;;;20.05;100.00;94307.25;6118321;23;20203;-82
2022/08/16 00:50:36;;;;;;;25.73;17.15;;;;;;;20.12;100.00;94307.69;6118401;23;20509;-82
2022/08/16 00:53:03;;;;;;;32.88;17.85;;;;;;;20.12;100.00;94313.75;6118025;23;20180;-82
2022/08/16 00:55:30;;;;;;;29.73;17.50;;;;;;;20.09;100.00;94314.31;6118245;23;20176;-83
2022/08/16 00:57:58;;;;;;;36.97;17.77;;;;;;;20.09;100.00;94316.94;6117560;23;20176;-83
2022/08/16 01:00:28;;;;;;;28.08;16.70;;;;;;;19.94;100.00;94303.97;6118330;23;20172;-82
2022/08/16 01:02:56;;;;;;;26.50;15.85;;;;;;;20.02;100.00;94319.19;6118365;23;20172;-84
2022/08/16 01:05:24;;;;;;;22.85;15.40;;;;;;;20.04;100.00;94306.47;6118260;23;20206;-84
2022/08/16 01:07:51;;;;;;;23.58;15.52;;;;;;;20.03;100.00;94320.72;6118669;23;20287;-84
2022/08/16 01:10:18;;;;;;;23.20;15.77;;;;;;;20.11;100.00;94322.75;6117616;23;20187;-84
2022/08/16 01:12:45;;;;;;;25.30;15.40;;;;;;;20.11;100.00;94320.13;6117693;23;20207;-84
2022/08/16 01:15:13;;;;;;;27.15;15.43;;;;;;;20.06;100.00;94322.78;6118249;23;20172;-84
2022/08/16 01:17:43;;;;;;;25.52;14.93;;;;;;;20.11;100.00;94328.03;6118419;23;20172;-84
2022/08/16 01:20:12;;;;;;;25.23;15.68;;;;;;;20.11;100.00;94333.31;6116294;23;20179;-82
2022/08/16 01:22:48;;;;;;;22.33;15.60;;;;;;;20.08;100.00;94333.88;6117619;23;20544;-82
2022/08/16 01:25:20;;;;;;;21.15;15.15;;;;;;;20.12;100.00;94332.22;6118077;23;20167;-82
2022/08/16 01:27:52;;;;;;;20.38;14.82;;;;;;;20.10;100.00;94326.44;6118236;23;20161;-82
2022/08/16 01:30:24;;;;;;;23.38;15.13;;;;;;;20.11;100.00;94337.78;6118055;23;20333;-82
2022/08/16 01:32:53;;;;;;;21.95;15.23;;;;;;;20.14;100.00;94329.31;6118181;23;20184;-83
2022/08/16 01:35:29;;;;;;;24.40;15.27;;;;;;;20.12;100.00;94329.56;6117288;23;20173;-83
2022/08/16 01:37:57;;;;;;;22.45;14.60;;;;;;;20.14;100.00;94324.03;6115274;23;20156;-82
2022/08/16 01:40:30;;;;;;;26.58;15.50;;;;;;;20.12;100.00;94339.34;6116783;23;20180;-83
2022/08/16 01:42:57;;;;;;;23.75;15.05;;;;;;;20.13;100.00;94330.38;6117308;23;20520;-82
2022/08/16 01:45:24;;;;;;;19.92;15.15;;;;;;;20.20;100.00;94344.00;6116289;23;20180;-82
2022/08/16 01:47:52;;;;;;;23.13;14.73;;;;;;;20.19;100.00;94342.44;6116273;23;20654;-83
2022/08/16 01:50:21;;;;;;;22.55;15.18;;;;;;;20.17;100.00;94337.41;6117536;23;20177;-83
2022/08/16 01:52:49;;;;;;;21.77;14.80;;;;;;;20.21;100.00;94337.63;6117382;23;20172;-82
2022/08/16 01:55:17;;;;;;;27.80;15.13;;;;;;;20.22;100.00;94355.06;6117906;23;20169;-81
2022/08/16 01:57:45;;;;;;;26.27;15.20;;;;;;;20.23;100.00;94346.09;6117834;23;20512;-83
2022/08/16 02:00:14;;;;;;;23.00;15.43;;;;;;;20.21;100.00;94340.28;6117581;23;20172;-82
2022/08/16 02:02:41;;;;;;;21.10;15.05;;;;;;;20.13;100.00;94352.28;6117056;23;20238;-82
2022/08/16 02:05:09;;;;;;;23.52;15.15;;;;;;;20.14;100.00;94351.22;6116952;23;20176;-82
2022/08/16 02:07:37;;;;;;;23.75;14.95;;;;;;;20.13;100.00;94365.47;6116990;23;20179;-83
2022/08/16 02:10:06;;;;;;;21.55;14.77;;;;;;;20.11;100.00;94367.63;6117813;23;20172;-82
2022/08/16 02:12:33;;;;;;;22.48;15.15;;;;;;;20.18;100.00;94364.59;6117304;23;20176;-82
2022/08/16 02:15:03;;;;;;;18.23;14.02;;;;;;;20.35;100.00;94376.28;6117129;23;20207;-82
2022/08/16 02:17:30;;;;;;;17.33;13.13;;;;;;;20.49;100.00;94386.13;6118383;23;20168;-83
2022/08/16 02:19:57;;;;;;;16.65;12.85;;;;;;;20.47;100.00;94378.50;6117694;23;20169;-83
2022/08/16 02:22:25;;;;;;;17.63;12.98;;;;;;;20.42;100.00;94397.03;6117612;23;20199;-82
2022/08/16 02:24:51;;;;;;;17.85;13.07;;;;;;;20.32;100.00;94402.44;6117679;23;20623;-82
2022/08/16 02:27:18;;;;;;;20.90;13.70;;;;;;;20.10;100.00;94405.63;6117168;23;20262;-84
2022/08/16 02:29:45;;;;;;;18.98;13.35;;;;;;;20.01;100.00;94403.88;6118159;23;20191;-83
2022/08/16 02:32:16;;;;;;;19.67;13.73;;;;;;;19.84;100.00;94396.44;6118028;23;20521;-82
2022/08/16 02:34:43;;;;;;;22.00;14.13;;;;;;;19.77;100.00;94407.31;6118777;23;20650;-81
2022/08/16 02:37:10;;;;;;;26.20;14.52;;;;;;;19.65;100.00;94403.50;6118330;23;20176;-83
2022/08/16 02:39:37;;;;;;;27.75;14.45;;;;;;;19.35;100.00;94385.31;6118931;23;20176;-83
2022/08/16 02:42:05;;;;;;;20.88;12.82;;;;;;;19.30;100.00;94395.91;6118966;23;20172;-83
2022/08/16 02:44:32;;;;;;;30.30;14.50;;;;;;;19.36;100.00;94400.09;6118911;23;20271;-83
2022/08/16 02:46:58;;;;;;;21.17;14.02;;;;;;;19.43;100.00;94403.19;6117606;23;20196;-80
2022/08/16 02:49:27;;;;;;;19.58;13.10;;;;;;;19.45;100.00;94398.44;6118683;23;20829;-83
2022/08/16 02:51:53;;;;;;;20.63;13.70;;;;;;;19.53;100.00;94397.81;6118385;23;20746;-82
2022/08/16 02:54:20;;;;;;;23.00;14.05;;;;;;;19.56;100.00;94405.19;6117830;23;20196;-82
2022/08/16 02:56:47;;;;;;;22.02;13.60;;;;;;;19.55;100.00;94404.38;6117189;23;20639;-83
2022/08/16 02:59:14;;;;;;;23.73;14.10;;;;;;;19.43;100.00;94396.06;6117623;23;20523;-84
2022/08/16 03:01:41;;;;;;;18.67;14.20;;;;;;;19.45;100.00;94393.16;6118402;23;20183;-84
2022/08/16 03:04:09;;;;;;;18.77;13.77;;;;;;;19.49;100.00;94386.25;6117354;23;20175;-84
2022/08/16 03:06:37;;;;;;;21.50;14.73;;;;;;;19.53;100.00;94379.38;6118305;23;20211;-82
2022/08/16 03:09:04;;;;;;;24.63;14.80;;;;;;;19.56;100.00;94374.34;6117625;23;20179;-82
2022/08/16 03:11:31;;;;;;;18.58;13.40;;;;;;;19.54;100.00;94370.38;6118368;23;20172;-83
2022/08/16 03:13:59;;;;;;;19.20;13.85;;;;;;;19.58;100.00;94376.69;6118243;23;20254;-82
2022/08/16 03:16:26;;;;;;;18.60;13.82;;;;;;;19.56;100.00;94365.63;6117845;23;20700;-82
2022/08/16 03:18:53;;;;;;;21.08;14.55;;;;;;;19.53;100.00;94358.28;6117454;23;20184;-82
2022/08/16 03:21:20;;;;;;;19.00;13.88;;;;;;;19.57;100.00;94354.00;6116005;23;20241;-82
2022/08/16 03:23:49;;;;;;;18.85;14.52;;;;;;;19.55;100.00;94342.97;6116023;23;20634;-82
2022/08/16 03:26:16;;;;;;;18.95;14.93;;;;;;;19.64;100.00;94349.19;6115756;23;20196;-82
2022/08/16 03:28:43;;;;;;;21.13;14.73;;;;;;;19.65;100.00;94356.81;6115026;23;20191;-83
2022/08/16 03:31:10;;;;;;;22.95;15.13;;;;;;;19.69;100.00;94362.31;6115592;23;20173;-81
2022/08/16 03:33:37;;;;;;;19.85;14.77;;;;;;;19.68;100.00;94350.22;6116078;23;20686;-82
2022/08/16 03:36:06;;;;;;;17.52;14.48;;;;;;;19.64;100.00;94354.47;6115746;23;20168;-83
2022/08/16 03:38:34;;;;;;;19.20;14.32;;;;;;;19.65;100.00;94361.31;6117284;23;20243;-83
2022/08/16 03:41:04;;;;;;;19.33;14.13;;;;;;;19.63;100.00;94353.66;6115880;23;20518;-83
2022/08/16 03:43:31;;;;;;;19.05;14.77;;;;;;;19.65;100.00;94354.16;6116984;23;20164;-82
2022/08/16 03:45:58;;;;;;;22.00;14.25;;;;;;;19.66;100.00;94366.28;6117818;23;20195;-81
2022/08/16 03:48:27;;;;;;;18.42;13.77;;;;;;;19.63;100.00;94363.44;6116848;23;20180;-82
2022/08/16 03:50:54;;;;;;;20.30;14.88;;;;;;;19.63;100.00;94358.94;6117208;23;20169;-83
2022/08/16 03:53:21;;;;;;;18.17;14.63;;;;;;;19.66;100.00;94361.03;6117206;23;20179;-83
2022/08/16 03:55:48;;;;;;;16.02;13.55;;;;;;;19.66;100.00;94365.50;6117331;23;20175;-82
2022/08/16 03:58:16;;;;;;;19.48;14.00;;;;;;;19.68;100.00;94366.03;6117379;23;20306;-83
2022/08/16 04:00:44;;;;;;;18.40;14.07;;;;;;;19.74;100.00;94367.50;6117545;23;20161;-83
2022/08/16 04:03:10;;;;;;;18.75;13.48;;;;;;;19.69;100.00;94368.38;6117776;23;20176;-83
2022/08/16 04:05:40;;;;;;;19.75;15.25;;;;;;;19.63;100.00;94358.16;6116815;23;20171;-85
2022/08/16 04:08:07;;;;;;;18.85;14.77;;;;;;;19.76;100.00;94360.91;6117293;23;20164;-78
2022/08/16 04:10:34;;;;;;;21.40;15.13;;;;;;;19.88;100.00;94365.00;6115659;23;20173;-76
2022/08/16 04:13:01;;;;;;;20.08;15.38;;;;;;;19.89;100.00;94356.00;6115615;23;20172;-77
2022/08/16 04:15:29;;;;;;;23.15;16.35;;;;;;;19.98;100.00;94355.09;6116560;23;20192;-78
2022/08/16 04:17:56;;;;;;;19.23;15.13;;;;;;;20.00;100.00;94365.38;6115770;23;20956;-78
2022/08/16 04:20:24;;;;;;;15.95;13.50;;;;;;;20.09;100.00;94356.53;6115382;23;20187;-77
2022/08/16 04:22:51;;;;;;;19.73;14.30;;;;;;;20.11;100.00;94359.69;6116882;23;20222;-78
2022/08/16 04:25:19;;;;;;;19.38;14.68;;;;;;;20.16;100.00;94358.81;6115547;23;20165;-76
2022/08/16 04:27:46;;;;;;;20.17;14.80;;;;;;;20.21;100.00;94359.53;6115728;23;20168;-77
2022/08/16 04:30:16;;;;;;;21.17;14.73;;;;;;;20.08;100.00;94365.53;6116856;23;20168;-77
2022/08/16 04:32:45;;;;;;;20.85;15.32;;;;;;;19.86;100.00;94348.66;6116274;23;20523;-77
2022/08/16 04:35:15;;;;;;;19.02;15.25;;;;;;;19.90;100.00;94370.78;6115422;23;20196;-77
2022/08/16 04:37:42;;;;;;;23.67;15.98;;;;;;;19.87;100.00;94351.03;6117098;23;20176;-77
2022/08/16 04:40:10;;;;;;;21.45;15.77;;;;;;;19.98;100.00;94368.28;6116391;23;20561;-77
2022/08/16 04:42:39;;;;;;;24.02;18.17;;;;;;;19.75;100.00;94353.28;6115974;23;20176;-78
2022/08/16 04:45:07;;;;;;;25.17;19.45;;;;;;;19.70;100.00;94369.16;6115943;23;20184;-76
2022/08/16 04:47:34;;;;;;;31.55;20.85;;;;;;;19.73;100.00;94371.25;6116550;23;20175;-77
2022/08/16 04:50:05;;;;;;;27.38;20.38;;;;;;;19.73;100.00;94361.47;6115513;23;20204;-77
2022/08/16 04:52:32;;;;;;;27.13;20.17;;;;;;;19.89;100.00;94366.56;6116910;23;20161;-77
2022/08/16 04:54:58;;;;;;;25.52;20.35;;;;;;;19.93;100.00;94371.00;6116028;23;20196;-78
2022/08/16 04:57:25;;;;;;;30.25;22.05;;;;;;;19.91;100.00;94362.59;6116306;23;20176;-77
2022/08/16 04:59:52;;;;;;;27.25;22.35;;;;;;;19.89;100.00;94369.19;6116515;23;20172;-78
2022/08/16 05:02:19;;;;;;;28.10;21.25;;;;;;;19.85;100.00;94379.53;6116191;23;20172;-77
2022/08/16 05:04:46;;;;;;;26.92;21.20;;;;;;;19.69;100.00;94378.91;6116061;23;20226;-76
2022/08/16 05:07:14;;;;;;;24.27;19.85;;;;;;;19.63;100.00;94381.88;6116177;23;20169;-78
2022/08/16 05:09:40;;;;;;;28.10;19.85;;;;;;;19.60;100.00;94385.09;6116801;23;20176;-79
2022/08/16 05:12:07;;;;;;;29.75;20.42;;;;;;;19.58;100.00;94381.94;6115760;23;20172;-77
2022/08/16 05:14:35;;;;;;;26.00;19.38;;;;;;;19.59;100.00;94380.91;6117219;23;20199;-80
2022/08/16 05:17:01;;;;;;;25.88;19.17;;;;;;;19.63;100.00;94377.41;6118010;23;20172;-77
2022/08/16 05:19:28;;;;;;;23.42;17.90;;;;;;;19.59;100.00;94391.44;6117118;23;20184;-77
2022/08/16 05:21:55;;;;;;;24.73;18.55;;;;;;;19.53;100.00;94384.66;6118010;23;20870;-78
2022/08/16 05:24:23;;;;;;;26.27;18.58;;;;;;;19.64;100.00;94402.72;6117885;23;20251;-78
2022/08/16 05:26:50;;;;;;;24.02;17.73;;;;;;;19.77;100.00;94401.25;6116675;23;20322;-78
2022/08/16 05:29:17;;;;;;;22.83;17.02;;;;;;;19.77;100.00;94398.59;6116661;23;20176;-78
2022/08/16 05:31:43;;;;;;;25.40;18.20;;;;;;;19.90;100.00;94397.16;6117684;23;20176;-77
2022/08/16 05:34:10;;;;;;;24.83;17.65;;;;;;;20.03;100.00;94394.59;6116437;23;20203;-78
2022/08/16 05:36:37;;;;;;;24.02;17.20;;;;;;;20.05;100.00;94402.25;6117403;23;20649;-78
2022/08/16 05:39:08;;;;;;;26.35;17.63;;;;;;;19.96;100.00;94377.56;6116672;23;20826;-76
2022/08/16 05:41:37;;;;;;;24.95;18.27;;;;;;;20.01;100.00;94391.47;6117130;23;20156;-76
2022/08/16 05:44:04;;;;;;;24.52;18.42;;;;;;;20.01;100.00;94383.56;6116487;23;20692;-76
2022/08/16 05:46:31;;;;;;;28.20;19.10;;;;;;;19.96;100.00;94385.47;6117638;23;20173;-78
2022/08/16 05:48:58;;;;;;;25.63;19.40;;;;;;;19.89;100.00;94382.38;6117163;23;20172;-77
2022/08/16 05:51:30;;;;;;;26.83;19.85;;;;;;;19.89;100.00;94375.25;6116882;23;20210;-77
2022/08/16 05:53:57;;;;;;;25.98;19.80;;;;;;;19.95;100.00;94381.25;6115343;23;20177;-77
2022/08/16 05:56:24;;;;;;;29.27;20.00;;;;;;;19.94;100.00;94382.34;6114978;23;20671;-77
2022/08/16 05:58:52;;;;;;;29.10;20.50;;;;;;;19.89;100.00;94377.91;6116180;23;20172;-73
2022/08/16 06:01:18;;;;;;;30.92;20.13;;;;;;;19.95;100.00;94382.03;6116193;23;20662;-73
2022/08/16 06:03:45;;;;;;;27.00;19.95;;;;;;;19.88;100.00;94378.19;6116058;23;20168;-73
2022/08/16 06:06:12;;;;;;;28.88;21.35;;;;;;;19.93;100.00;94388.69;6115588;23;20169;-72
2022/08/16 06:08:39;;;;;;;31.60;20.00;;;;;;;19.96;100.00;94388.91;6116497;23;20172;-73
2022/08/16 06:11:07;;;;;;;30.13;19.92;;;;;;;19.97;100.00;94393.09;6114624;23;20184;-73
2022/08/16 06:13:36;;;;;;;28.15;18.95;;;;;;;20.03;100.00;94384.06;6116647;23;20176;-73
2022/08/16 06:16:05;;;;;;;29.33;19.83;;;;;;;20.20;100.00;94387.00;6115928;23;20188;-73
2022/08/16 06:18:33;;;;;;;28.63;19.92;;;;;;;20.38;100.00;94394.19;6115854;23;20522;-73
2022/08/16 06:21:00;;;;;;;28.42;19.77;;;;;;;20.49;100.00;94389.53;6115489;23;20681;-74
2022/08/16 06:23:27;;;;;;;33.25;20.65;;;;;;;20.50;100.00;94387.69;6116408;23;20172;-79
2022/08/16 06:25:54;;;;;;;33.85;20.23;;;;;;;20.41;100.00;94384.91;6114098;23;20593;-74
2022/08/16 06:28:21;;;;;;;28.10;19.98;;;;;;;20.48;100.00;94372.16;6111936;23;20195;-75
2022/08/16 06:30:48;;;;;;;25.23;19.60;;;;;;;20.63;100.00;94376.41;6114337;23;20527;-75
2022/08/16 06:33:18;;;;;;;29.48;19.63;;;;;;;20.46;100.00;94370.88;6113374;23;20643;-77
2022/08/16 06:35:45;;;;;;;26.85;20.15;;;;;;;20.52;100.00;94375.75;6113335;23;20729;-75
2022/08/16 06:38:11;;;;;;;24.65;18.83;;;;;;;20.55;100.00;94379.72;6112867;23;20631;-75
2022/08/16 06:40:38;;;;;;;29.73;19.00;;;;;;;20.58;100.00;94381.75;6113104;23;20208;-74
2022/08/16 06:43:05;;;;;;;24.92;19.40;;;;;;;20.68;100.00;94381.63;6111572;23;20180;-74
2022/08/16 06:45:36;;;;;;;27.90;18.85;;;;;;;20.82;100.00;94377.97;6112235;23;20160;-74
2022/08/16 06:48:04;;;;;;;29.25;20.13;;;;;;;20.92;100.00;94379.66;6112814;23;20171;-74
2022/08/16 06:50:32;;;;;;;28.60;19.33;;;;;;;21.04;100.00;94373.94;6114044;23;20231;-80
2022/08/16 06:53:00;;;;;;;23.92;18.20;;;;;;;21.14;100.00;94371.13;6043229;23;20175;-77
2022/08/16 06:55:27;;;;;;;25.20;17.77;;;;;;;21.25;100.00;94372.53;6091071;23;20224;-76
2022/08/16 06:57:54;;;;;;;25.33;18.25;;;;;;;21.46;100.00;94377.19;6111396;23;20172;-77
2022/08/16 07:00:22;;;;;;;25.35;17.77;;;;;;;21.79;100.00;94366.53;6114705;23;20263;-79
2022/08/16 07:02:51;;;;;;;21.17;16.60;;;;;;;21.88;100.00;94364.75;6112680;23;20194;-80
2022/08/16 07:05:19;;;;;;;24.25;17.65;;;;;;;21.91;100.00;94350.94;6113514;23;20172;-77
2022/08/16 07:07:51;;;;;;;25.08;17.58;;;;;;;21.85;100.00;94355.53;6114592;23;20619;-79
2022/08/16 07:10:19;;;;;;;23.48;16.45;;;;;;;21.83;100.00;94354.25;6115004;23;20243;-80
2022/08/16 07:12:49;;;;;;;26.05;18.52;;;;;;;21.79;100.00;94351.41;6114246;23;20662;-80
2022/08/16 07:15:16;;;;;;;24.52;16.92;;;;;;;21.78;100.00;94355.16;6114267;23;20192;-80
2022/08/16 07:17:43;;;;;;;23.60;16.77;;;;;;;21.82;100.00;94342.09;6115634;23;20172;-80
2022/08/16 07:20:12;;;;;;;20.13;14.32;;;;;;;21.87;100.00;94342.00;6116657;23;20172;-78
2022/08/16 07:22:39;;;;;;;24.85;17.13;;;;;;;21.90;100.00;94341.47;6115534;23;20178;-79
2022/08/16 07:25:10;;;;;;;24.60;13.35;;;;;;;22.04;100.00;94334.28;6117223;23;20171;-79
2022/08/16 07:27:37;;;;;;;14.23;10.10;;;;;;;22.58;100.00;94325.38;6116714;23;20593;-77
2022/08/16 07:30:07;;;;;;;24.58;15.32;;;;;;;22.93;100.00;94331.75;6117044;23;20627;-77
2022/08/16 07:32:34;;;;;;;17.90;11.23;;;;;;;23.12;100.00;94340.25;6117253;23;20211;-77
2022/08/16 07:35:01;;;;;;;20.05;14.38;;;;;;;23.23;100.00;94338.94;6116255;23;20236;-78
2022/08/16 07:37:27;;;;;;;20.90;14.32;;;;;;;23.22;100.00;94332.06;6116783;23;20492;-78
2022/08/16 07:39:54;;;;;;;22.67;12.57;;;;;;;23.37;100.00;94337.00;6116719;23;20179;-78
2022/08/16 07:42:23;;;;;;;24.48;13.20;;;;;;;23.45;100.00;94340.78;6117319;23;20618;-78
2022/08/16 07:44:50;;;;;;;20.20;13.48;;;;;;;23.51;100.00;94343.00;6113386;23;20168;-78
2022/08/16 07:47:17;;;;;;;22.25;12.90;;;;;;;23.53;100.00;94340.81;6118825;23;20177;-78
2022/08/16 07:49:44;;;;;;;17.45;11.85;;;;;;;23.58;100.00;94338.03;6119048;23;20172;-79
2022/08/16 07:52:11;;;;;;;17.58;12.25;;;;;;;23.60;99.74;94341.19;6118910;23;20176;-78
2022/08/16 07:54:37;;;;;;;22.73;13.02;;;;;;;23.58;99.55;94332.72;6118557;23;20566;-76
2022/08/16 07:57:05;;;;;;;15.63;11.75;;;;;;;23.56;99.85;94337.56;6119275;23;20169;-77
2022/08/16 07:59:34;;;;;;;23.30;12.43;;;;;;;23.57;98.84;94338.34;6118674;23;20195;-78
2022/08/16 08:02:00;;;;;;;13.98;9.88;;;;;;;23.56;97.97;94345.53;6118757;23;20180;-78
2022/08/16 08:04:31;;;;;;;15.77;11.05;;;;;;;23.60;95.93;94346.47;6118445;23;20499;-78
2022/08/16 08:07:00;;;;;;;12.00;8.68;;;;;;;23.69;99.21;94349.16;6119636;23;20168;-78
2022/08/16 08:09:27;;;;;;;11.68;9.82;;;;;;;23.78;97.14;94346.53;6118369;23;20176;-77
2022/08/16 08:11:53;;;;;;;11.88;8.52;;;;;;;23.86;94.45;94343.91;6119579;23;20179;-78
2022/08/16 08:14:20;;;;;;;12.93;8.40;;;;;;;24.00;92.58;94346.44;6119593;23;20168;-79
2022/08/16 08:16:49;;;;;;;9.98;7.57;;;;;;;24.24;86.46;94347.59;6119141;23;20207;-78
2022/08/16 08:19:16;;;;;;;10.10;7.60;;;;;;;24.63;85.24;94348.56;6119374;23;20230;-77
2022/08/16 08:21:43;;;;;;;14.75;7.88;;;;;;;24.83;82.68;94343.44;6118597;23;20168;-78
2022/08/16 08:24:13;;;;;;;11.95;7.72;;;;;;;24.96;81.03;94344.38;6118586;23;20256;-78
2022/08/16 08:26:41;;;;;;;9.02;7.43;;;;;;;25.06;82.88;94348.56;6118610;23;20200;-78
2022/08/16 08:29:07;;;;;;;8.60;7.70;;;;;;;25.12;79.62;94342.78;6118341;23;20251;-78
2022/08/16 08:31:35;;;;;;;13.30;7.35;;;;;;;25.18;78.86;94349.50;6119284;23;20519;-78
2022/08/16 08:34:06;;;;;;;10.38;7.38;;;;;;;25.29;80.36;94355.25;6119035;23;20183;-78
2022/08/16 08:36:35;;;;;;;14.15;7.40;;;;;;;25.36;79.05;94347.56;6118698;23;20203;-78
2022/08/16 08:39:03;;;;;;;10.50;7.88;;;;;;;25.32;79.68;94339.44;6118824;23;20176;-78
2022/08/16 08:41:29;;;;;;;11.35;7.57;;;;;;;25.45;76.74;94353.66;6118766;23;20639;-78
2022/08/16 08:43:57;;;;;;;10.27;6.97;;;;;;;25.56;74.40;94359.44;6118534;23;20172;-77
2022/08/16 08:46:25;;;;;;;9.68;6.30;;;;;;;25.59;71.78;94351.59;6118892;23;20171;-78
2022/08/16 08:48:54;;;;;;;11.25;7.25;;;;;;;25.63;72.67;94360.50;6118287;23;20647;-78
2022/08/16 08:51:24;;;;;;;10.00;6.95;;;;;;;25.80;74.87;94355.09;6119054;23;20172;-79
2022/08/16 08:53:51;;;;;;;11.35;7.40;;;;;;;26.17;72.59;94356.22;6118288;23;20195;-80
2022/08/16 08:56:18;;;;;;;13.85;8.05;;;;;;;26.35;69.92;94348.84;6118836;23;20196;-78
2022/08/16 08:58:45;;;;;;;8.52;5.93;;;;;;;26.65;69.11;94368.25;6118849;23;20165;-79
2022/08/16 09:01:12;;;;;;;10.65;6.10;;;;;;;26.68;70.12;94357.72;6118714;23;20179;-78
2022/08/16 09:03:39;;;;;;;7.95;5.85;;;;;;;26.76;73.18;94358.75;6118267;23;20323;-79
2022/08/16 09:06:08;;;;;;;8.55;7.07;;;;;;;26.77;67.21;94360.31;6118812;23;20169;-79
2022/08/16 09:08:36;;;;;;;7.70;6.65;;;;;;;26.73;68.77;94351.41;6119350;23;20172;-78
2022/08/16 09:11:03;;;;;;;8.30;6.50;;;;;;;26.76;67.24;94358.75;6119239;23;20526;-77
2022/08/16 09:13:31;;;;;;;8.38;6.20;;;;;;;26.77;68.50;94357.66;6118473;23;20176;-79
2022/08/16 09:15:58;;;;;;;7.68;5.93;;;;;;;26.79;70.10;94364.25;6118961;23;20200;-78
2022/08/16 09:18:26;;;;;;;7.53;6.72;;;;;;;26.92;69.17;94362.44;6118647;23;20172;-79
2022/08/16 09:20:54;;;;;;;7.40;6.57;;;;;;;27.13;67.62;94351.72;6118602;23;20183;-79
2022/08/16 09:23:21;;;;;;;8.25;6.40;;;;;;;27.24;67.22;94355.53;6119091;23;20254;-78
2022/08/16 09:25:50;;;;;;;7.55;6.80;;;;;;;27.20;67.80;94359.97;6118257;23;20199;-78
2022/08/16 09:28:17;;;;;;;9.82;7.00;;;;;;;27.21;68.77;94356.97;6117933;23;20176;-77
2022/08/16 09:30:44;;;;;;;9.68;6.80;;;;;;;27.37;68.91;94357.13;6118790;23;20655;-78
2022/08/16 09:33:17;;;;;;;8.02;6.78;;;;;;;27.44;66.54;94354.72;6117982;23;20172;-78
2022/08/16 09:35:44;;;;;;;7.60;6.78;;;;;;;27.65;63.83;94355.41;6118641;23;20241;-80
2022/08/16 09:38:12;;;;;;;10.38;6.75;;;;;;;27.79;64.17;94353.22;6119159;23;20175;-79
2022/08/16 09:40:41;;;;;;;7.32;6.30;;;;;;;27.84;62.10;94358.34;6117961;23;20633;-78
2022/08/16 09:43:09;;;;;;;6.82;6.18;;;;;;;27.94;63.35;94347.19;6117985;23;20168;-79
2022/08/16 09:45:37;;;;;;;10.27;6.50;;;;;;;28.01;63.46;94352.78;6118891;23;20168;-79
2022/08/16 09:48:06;;;;;;;10.27;6.93;;;;;;;28.06;66.78;94346.44;6118209;23;20178;-78
2022/08/16 09:50:34;;;;;;;9.57;6.93;;;;;;;28.04;63.86;94356.69;6118676;23;20702;-80
2022/08/16 09:53:02;;;;;;;6.20;5.20;;;;;;;28.13;65.94;94349.34;6118903;23;20651;-79
2022/08/16 09:55:29;;;;;;;9.90;6.28;;;;;;;28.07;63.82;94348.81;6117639;23;20744;-77
2022/08/16 09:57:56;;;;;;;7.72;5.95;;;;;;;28.35;61.74;94354.22;6118399;23;20557;-78
2022/08/16 10:00:25;;;;;;;7.85;5.88;;;;;;;28.65;61.87;94360.88;6118689;23;20176;-78
2022/08/16 10:02:52;;;;;;;9.05;5.95;;;;;;;28.81;59.24;94363.63;6118846;23;20169;-78
2022/08/16 10:05:20;;;;;;;8.80;5.97;;;;;;;28.86;59.26;94367.97;6118440;23;20169;-77
2022/08/16 10:07:51;;;;;;;10.00;6.38;;;;;;;28.68;60.12;94359.44;6118471;23;20196;-78
2022/08/16 10:10:20;;;;;;;9.85;6.22;;;;;;;28.77;59.22;94357.41;6118007;23;20190;-78
2022/08/16 10:15:35;;;;;;;10.63;6.10;;;;;;;29.16;59.15;94348.53;6117808;23;20155;-78
2022/08/16 10:18:06;;;;;;;9.48;6.03;;;;;;;29.11;59.51;94350.69;6118509;23;20171;-77
2022/08/16 10:20:35;;;;;;;11.18;6.28;;;;;;;28.96;61.29;94341.50;6118057;23;20271;-78
2022/08/16 10:23:03;;;;;;;11.75;6.28;;;;;;;29.12;59.76;94349.56;6118181;23;20168;-78
2022/08/16 10:25:30;;;;;;;7.28;5.82;;;;;;;29.19;59.31;94352.44;6117494;23;20172;-77
2022/08/16 10:27:56;;;;;;;8.27;6.00;;;;;;;29.26;60.30;94352.66;6118184;23;20638;-78
2022/08/16 10:30:23;;;;;;;6.93;6.20;;;;;;;29.57;58.41;94351.91;6117680;23;20737;-78
2022/08/16 10:32:51;;;;;;;7.60;5.97;;;;;;;29.66;56.75;94352.53;6118537;23;20623;-77
2022/08/16 10:35:18;;;;;;;10.30;6.80;;;;;;;29.52;58.11;94365.56;6118134;23;20662;-79
2022/08/16 10:37:45;;;;;;;10.93;6.13;;;;;;;29.45;58.90;94366.16;6118230;23;20196;-78
2022/08/16 10:40:13;;;;;;;14.70;6.57;;;;;;;29.26;61.08;94368.72;6118356;23;20171;-79
2022/08/16 10:42:40;;;;;;;12.23;6.93;;;;;;;29.05;65.55;94376.13;6118431;23;20165;-79
2022/08/16 10:45:08;;;;;;;16.33;7.30;;;;;;;28.68;67.48;94370.91;6117346;23;20180;-79
2022/08/16 10:47:35;;;;;;;12.05;7.03;;;;;;;28.13;68.02;94360.81;6118469;23;20165;-79
2022/08/16 10:50:05;;;;;;;13.00;7.03;;;;;;;27.67;74.45;94333.72;6118316;23;20180;-78
2022/08/16 10:52:32;;;;;;;8.73;7.20;;;;;;;27.98;77.26;94348.09;6119423;23;20153;-77
2022/08/16 10:55:01;;;;;;;13.75;7.90;;;;;;;28.21;77.28;94347.66;6119478;23;20576;-79
2022/08/16 10:57:30;;;;;;;8.80;6.65;;;;;;;28.57;73.74;94350.28;6119918;23;20275;-78
2022/08/16 10:59:57;;;;;;;9.38;7.20;;;;;;;28.83;69.50;94348.00;6118920;23;20204;-79
2022/08/16 11:02:27;;;;;;;8.35;6.60;;;;;;;28.95;69.07;94352.53;6120223;23;20183;-77
2022/08/16 11:04:54;;;;;;;9.35;6.95;;;;;;;29.31;67.20;94356.97;6119953;23;20565;-77
2022/08/16 11:07:22;;;;;;;11.00;6.40;;;;;;;29.75;61.54;94345.88;6119188;23;20164;-77
2022/08/16 11:09:49;;;;;;;8.75;6.40;;;;;;;30.16;62.89;94346.50;6119725;23;20176;-77
2022/08/16 11:12:16;;;;;;;11.35;6.63;;;;;;;30.53;63.61;94357.69;6119770;23;20173;-77
2022/08/16 11:14:43;;;;;;;9.07;6.53;;;;;;;30.87;60.66;94348.81;6118563;23;20173;-77
2022/08/16 11:17:12;;;;;;;6.75;6.05;;;;;;;30.90;58.76;94356.16;6120043;23;20232;-77
2022/08/16 11:19:41;;;;;;;8.10;6.00;;;;;;;30.82;59.10;94354.47;6119544;23;20183;-77